Victoria Falls, Zimbabwe

6:24 PM CAT on March 24, 2017 (GMT +0200)
Victoria Falls | | Change Station

Elev 3484 ft 18.10 °S, 25.85 °E | Updated 24 minutes ago

Partly Cloudy
Partly Cloudy
82 °F
Feels Like 84 °F
N
8
Wind Variable Wind from East

Today
High -- | Low -- °F
--% Chance of Precip.
Yesterday
High -- | Low -- °F
Precip. -- in
Pressure 29.98 in
Visibility 6.2 miles
Clouds Few 4000 ft
Heat Index 84 °F
Dew Point 64 °F
Humidity 54%
Rainfall 0.00 in
Snow Depth Not available.
6:21 AM 6:24 PM
Waning Crescent, 14% visible
METAR FVFA 241600Z 08007KT 9999 FEW040CB 28/18 Q1015 TEMPO TS
Pressure 29.98 in
Visibility 6.2 miles
Clouds Few 4000 ft
Heat Index 84 °F
Dew Point 64 °F
Humidity 54%
Rainfall 0.00 in
Snow Depth Not available.
6:21 AM 6:24 PM
Waning Crescent, 14% visible
METAR FVFA 241600Z 08007KT 9999 FEW040CB 28/18 Q1015 TEMPO TS

Get Severe Weather Alerts

Thanks for signing up!

Be on the lookout for a verification email in your inbox.

You'll start receiving the daily forecast at 8 AM.

×

10-Day Weather Forecast

No radar image for this location.
×

Almanac

Astronomy

Mar. 24, 2017 Rise Set
Actual Time
Civil Twilight
Nautical Twilight
Astronomical Twilight
Moon
Length of Visible Light
Length of Day
Tomorrow will be .
, % of the Moon is Illuminated

Today's Extremes

Country Highs Country Lows

Community

WunderPhotos

Upload Photos

1,962,540 photos uploaded!

WunderBlog® & News

Nearby

Air Quality

  Air Quality AQ Index Pollutant
Not available.

Snow Depth

Station Depth Elevation

Earthquake Activity

City Distance Mag. Time & Date
Minimum magnitude displayed is 2.5.

Earthquake Activity

City Distance Mag. Time & Date
Minimum magnitude displayed is 2.5.

Coastal Water Temperatures

Place Temperature

Stations

Nearby Weather Stations

Station Location Temp. Windchill Dew Point Humidity Wind Precip. Elev Updated Type